createdAt,value
2019-05-15T00:00:40.937Z,40.80
2019-05-15T00:03:12.655Z,37.40
2019-05-15T00:05:42.257Z,104.97
2019-05-15T00:08:11.888Z,78.97
2019-05-15T00:10:42.667Z,54.65
2019-05-15T00:15:41.312Z,38.08
2019-05-15T00:18:11.023Z,37.17
2019-05-15T00:20:40.653Z,38.80
2019-05-15T00:23:10.397Z,37.63
2019-05-15T00:25:40.181Z,41.47
2019-05-15T00:28:09.934Z,48.57
2019-05-15T00:30:39.700Z,49.75
2019-05-15T00:35:39.689Z,46.45
2019-05-15T00:38:09.690Z,47.83
2019-05-15T00:43:09.389Z,51.33
2019-05-15T00:45:39.066Z,62.45
2019-05-15T00:48:09.083Z,56.23
2019-05-15T00:50:39.650Z,79.53
2019-05-15T00:55:39.436Z,63.83
2019-05-15T00:58:09.069Z,59.20
2019-05-15T01:00:43.905Z,58.92
2019-05-15T01:03:13.556Z,63.35
2019-05-15T01:05:43.327Z,72.15
2019-05-15T01:08:13.030Z,66.65
2019-05-15T01:10:42.891Z,77.12
2019-05-15T01:13:12.577Z,71.37
2019-05-15T01:15:42.271Z,68.70
2019-05-15T01:18:12.797Z,59.33
2019-05-15T01:20:42.396Z,61.95
2019-05-15T01:23:12.105Z,60.38
2019-05-15T01:25:41.732Z,61.65
2019-05-15T01:28:11.466Z,63.33
2019-05-15T01:30:41.005Z,38.70
2019-05-15T01:33:10.747Z,21.80
2019-05-15T01:35:40.503Z,25.13
2019-05-15T01:40:39.999Z,24.67
2019-05-15T01:43:09.712Z,26.93
2019-05-15T01:45:39.754Z,25.35
2019-05-15T01:48:09.548Z,29.45
2019-05-15T01:50:39.186Z,26.40
2019-05-15T01:53:08.914Z,36.85
2019-05-15T01:55:39.508Z,27.17
2019-05-15T01:58:09.506Z,32.55
2019-05-15T02:00:39.500Z,33.83
2019-05-15T02:03:09.842Z,19.70
2019-05-15T02:05:40.492Z,34.80
2019-05-15T02:08:10.282Z,26.27
2019-05-15T02:10:39.981Z,20.73
2019-05-15T02:13:09.576Z,40.23
2019-05-15T02:15:39.780Z,33.13
2019-05-15T02:18:09.621Z,22.50
2019-05-15T02:20:39.360Z,31.17
2019-05-15T02:23:11.785Z,28.65
2019-05-15T02:25:40.684Z,33.48
2019-05-15T02:28:10.271Z,29.82
2019-05-15T02:30:41.021Z,35.30
2019-05-15T02:35:40.680Z,29.00
2019-05-15T02:38:15.101Z,31.45
2019-05-15T02:40:41.774Z,30.52
2019-05-15T02:43:11.469Z,21.30
2019-05-15T02:45:42.435Z,21.57
2019-05-15T02:48:12.588Z,15.20
2019-05-15T02:50:42.197Z,24.82
2019-05-15T02:53:11.929Z,23.55
2019-05-15T02:55:41.705Z,17.92
2019-05-15T02:58:11.424Z,18.50
2019-05-15T03:00:48.336Z,20.72
2019-05-15T03:03:12.402Z,15.28
2019-05-15T03:05:43.801Z,15.35
2019-05-15T03:08:13.535Z,17.67
2019-05-15T03:10:43.242Z,16.23
2019-05-15T03:13:13.000Z,18.27
2019-05-15T03:15:42.879Z,15.47
2019-05-15T03:18:12.606Z,14.70
2019-05-15T03:20:42.639Z,15.32
2019-05-15T03:23:12.318Z,15.70
2019-05-15T03:25:42.072Z,14.93
2019-05-15T03:28:11.724Z,16.00
2019-05-15T03:31:13.485Z,10.25
2019-05-15T03:33:20.872Z,12.60
2019-05-15T03:35:45.444Z,15.78
2019-05-15T03:38:15.349Z,14.90
2019-05-15T03:40:45.014Z,16.77
2019-05-15T03:43:14.767Z,15.40
2019-05-15T03:45:44.572Z,13.90
2019-05-15T03:48:14.384Z,15.50
2019-05-15T03:50:44.196Z,18.90
2019-05-15T03:53:13.942Z,16.83
2019-05-15T03:55:43.673Z,15.80
2019-05-15T03:58:13.347Z,14.38
2019-05-15T04:00:42.960Z,13.68
2019-05-15T04:03:13.751Z,18.00
2019-05-15T04:05:44.154Z,16.97
2019-05-15T04:08:13.864Z,13.08
2019-05-15T04:10:43.532Z,16.48
2019-05-15T04:13:13.240Z,16.67
2019-05-15T04:15:43.012Z,15.30
2019-05-15T04:18:12.829Z,18.75
2019-05-15T04:20:42.608Z,19.13
2019-05-15T04:23:14.217Z,17.60
2019-05-15T04:25:45.408Z,17.52
2019-05-15T04:28:19.248Z,18.20
2019-05-15T04:30:49.612Z,20.60
2019-05-15T04:33:19.993Z,16.82
2019-05-15T04:35:49.947Z,15.90
2019-05-15T04:38:19.844Z,16.70
2019-05-15T04:40:50.047Z,17.48
2019-05-15T04:43:20.020Z,17.87
2019-05-15T04:45:49.994Z,13.85
2019-05-15T04:48:20.284Z,15.10
2019-05-15T04:50:50.120Z,12.03
2019-05-15T04:53:19.881Z,14.70
2019-05-15T04:55:49.652Z,14.57
2019-05-15T04:58:20.731Z,14.40
2019-05-15T05:00:54.575Z,14.73
2019-05-15T05:03:24.312Z,14.03
2019-05-15T05:05:53.990Z,14.55
2019-05-15T05:10:53.731Z,14.50
2019-05-15T05:13:23.471Z,15.37
2019-05-15T05:15:53.171Z,16.30
2019-05-15T05:18:22.974Z,16.10
2019-05-15T05:20:52.717Z,16.77
2019-05-15T05:23:22.581Z,15.23
2019-05-15T05:25:52.318Z,15.27
2019-05-15T05:28:22.039Z,16.52
2019-05-15T05:30:51.740Z,15.45
2019-05-15T05:33:21.539Z,15.23
2019-05-15T05:35:51.272Z,16.03
2019-05-15T05:38:21.173Z,15.15
2019-05-15T05:40:51.166Z,16.32
2019-05-15T05:43:22.079Z,16.48
2019-05-15T05:45:51.859Z,16.77
2019-05-15T05:48:29.095Z,16.62
2019-05-15T05:50:58.423Z,15.15
2019-05-15T05:53:28.743Z,16.52
2019-05-15T05:55:58.531Z,14.55
2019-05-15T05:58:29.675Z,14.70
2019-05-15T06:00:59.649Z,13.88
2019-05-15T06:03:29.458Z,12.53
2019-05-15T06:05:59.331Z,13.50
2019-05-15T06:08:29.099Z,13.62
2019-05-15T06:10:58.924Z,13.58
2019-05-15T06:13:29.133Z,14.03
2019-05-15T06:15:59.291Z,13.45
2019-05-15T06:18:29.011Z,13.68
2019-05-15T06:20:58.923Z,13.20
2019-05-15T06:23:35.145Z,13.22
2019-05-15T06:25:59.971Z,13.08
2019-05-15T06:28:29.635Z,13.80
2019-05-15T06:31:00.792Z,13.72
2019-05-15T06:33:31.744Z,12.73
2019-05-15T06:36:01.559Z,13.38
2019-05-15T06:38:31.337Z,13.85
2019-05-15T06:41:01.060Z,12.75
2019-05-15T06:43:30.777Z,12.58
2019-05-15T06:46:01.546Z,13.68
2019-05-15T06:48:31.304Z,14.63
2019-05-15T06:51:00.848Z,13.03
2019-05-15T06:53:30.554Z,14.00
2019-05-15T06:56:00.337Z,12.15
2019-05-15T06:58:33.003Z,13.15
2019-05-15T07:01:02.864Z,12.70
2019-05-15T07:03:32.734Z,13.68
2019-05-15T07:06:02.675Z,13.75
2019-05-15T07:08:33.176Z,11.60
2019-05-15T07:11:02.915Z,13.95
2019-05-15T07:13:32.720Z,12.50
2019-05-15T07:16:03.447Z,14.05
2019-05-15T07:18:33.224Z,12.98
2019-05-15T07:21:02.953Z,13.08
2019-05-15T07:23:32.629Z,13.08
2019-05-15T07:26:02.290Z,11.83
2019-05-15T07:28:32.055Z,11.95
2019-05-15T07:31:02.040Z,11.73
2019-05-15T07:36:02.334Z,11.18
2019-05-15T07:38:32.132Z,11.63
2019-05-15T07:43:32.373Z,10.95
2019-05-15T07:48:30.836Z,11.05
2019-05-15T07:51:00.592Z,11.75
2019-05-15T07:56:01.342Z,11.47
2019-05-15T07:58:30.857Z,10.93
2019-05-15T08:01:00.840Z,10.43
2019-05-15T08:03:31.630Z,12.53
2019-05-15T08:06:03.139Z,10.20
2019-05-15T08:08:34.135Z,11.08
2019-05-15T08:11:16.332Z,12.10
2019-05-15T08:13:35.495Z,12.05
2019-05-15T08:18:34.136Z,9.95
2019-05-15T08:21:03.848Z,10.25
2019-05-15T08:26:03.249Z,10.90
2019-05-15T08:28:33.570Z,10.65
2019-05-15T08:31:06.480Z,11.25
2019-05-15T08:33:34.723Z,11.28
2019-05-15T08:38:33.413Z,10.68
2019-05-15T08:43:32.124Z,11.30
2019-05-15T08:46:01.919Z,10.63
2019-05-15T08:48:32.883Z,10.53
2019-05-15T08:51:03.721Z,11.03
2019-05-15T08:53:33.480Z,10.82
2019-05-15T08:56:03.104Z,9.55
2019-05-15T08:58:32.990Z,11.18
2019-05-15T09:01:02.733Z,9.25
2019-05-15T09:03:32.435Z,9.80
2019-05-15T09:06:02.139Z,9.48
2019-05-15T09:08:31.979Z,10.45
2019-05-15T09:11:01.872Z,9.70
2019-05-15T09:13:31.560Z,9.63
2019-05-15T09:16:01.386Z,11.87
2019-05-15T09:18:31.230Z,9.03
2019-05-15T09:21:02.489Z,9.93
2019-05-15T09:23:32.780Z,10.45
2019-05-15T09:26:02.793Z,9.55
2019-05-15T09:28:32.728Z,10.35
2019-05-15T09:31:02.671Z,11.15
2019-05-15T09:33:32.468Z,9.58
2019-05-15T09:36:02.241Z,10.55
2019-05-15T09:38:31.978Z,10.98
2019-05-15T09:41:01.697Z,10.18
2019-05-15T09:43:31.500Z,10.30
2019-05-15T09:46:02.248Z,8.88
2019-05-15T09:48:32.065Z,9.37
2019-05-15T09:51:01.854Z,8.98
2019-05-15T09:53:31.635Z,9.00
2019-05-15T09:56:01.485Z,8.68
2019-05-15T09:58:31.211Z,8.75
2019-05-15T10:01:01.060Z,8.53
2019-05-15T10:03:31.826Z,9.40
2019-05-15T10:06:01.527Z,8.50
2019-05-15T10:08:31.268Z,8.63
2019-05-15T10:11:00.998Z,9.75
2019-05-15T10:13:30.641Z,8.37
2019-05-15T10:16:00.479Z,9.10
2019-05-15T10:18:30.284Z,10.28
2019-05-15T10:20:59.998Z,8.53
2019-05-15T10:23:29.702Z,8.25
2019-05-15T10:25:59.617Z,7.53
2019-05-15T10:28:29.600Z,8.28
2019-05-15T10:30:59.980Z,9.28
2019-05-15T10:33:31.395Z,12.78
2019-05-15T10:36:01.409Z,9.13
2019-05-15T10:38:31.288Z,9.00
2019-05-15T10:41:08.913Z,9.28
2019-05-15T10:43:32.619Z,8.95
2019-05-15T10:46:02.393Z,8.20
2019-05-15T10:51:09.091Z,9.68
2019-05-15T10:53:33.632Z,9.53
2019-05-15T10:56:03.293Z,11.10
2019-05-15T10:58:33.206Z,10.60
2019-05-15T11:01:03.735Z,11.40
2019-05-15T11:06:04.349Z,9.60
2019-05-15T11:08:34.145Z,8.90
2019-05-15T11:11:03.881Z,8.67
2019-05-15T11:36:38.706Z,7.25
2019-05-15T11:39:08.397Z,9.30
2019-05-15T11:41:38.784Z,7.92
2019-05-15T11:44:08.792Z,8.23
2019-05-15T11:46:39.226Z,8.38
2019-05-15T11:51:39.135Z,9.53
2019-05-15T11:54:08.990Z,8.23
2019-05-15T11:56:39.292Z,8.03
2019-05-15T11:59:09.666Z,8.13
2019-05-15T12:01:39.499Z,8.08
2019-05-15T12:04:09.516Z,7.65
2019-05-15T12:06:39.342Z,8.93
2019-05-15T12:09:09.397Z,7.83
2019-05-15T12:11:41.144Z,7.83
2019-05-15T12:14:10.665Z,8.38
2019-05-15T12:16:40.430Z,8.77
2019-05-15T12:19:16.664Z,8.23
2019-05-15T12:21:41.543Z,9.10
2019-05-15T12:24:11.307Z,7.83
2019-05-15T12:26:40.967Z,8.63
2019-05-15T12:29:10.751Z,7.60
2019-05-15T12:31:40.454Z,8.30
2019-05-15T12:35:34.240Z,7.28
2019-05-15T12:38:04.017Z,7.17
2019-05-15T13:00:53.345Z,7.53
2019-05-15T13:03:23.261Z,7.27
2019-05-15T13:05:53.095Z,8.58
2019-05-15T13:08:22.782Z,7.53
2019-05-15T13:10:52.509Z,8.30
2019-05-15T13:13:22.147Z,8.85
2019-05-15T13:15:53.349Z,7.83
2019-05-15T13:18:23.059Z,8.45
2019-05-15T13:20:56.059Z,9.40
2019-05-15T13:23:24.577Z,9.35
2019-05-15T13:25:54.307Z,8.97
2019-05-15T13:28:23.929Z,9.05
2019-05-15T13:30:53.594Z,8.25
2019-05-15T13:33:23.230Z,7.85
2019-05-15T13:35:53.015Z,8.55
2019-05-15T13:38:24.228Z,9.10
2019-05-15T13:40:53.911Z,8.10
2019-05-15T13:43:25.140Z,8.08
2019-05-15T13:45:54.819Z,9.00
2019-05-15T13:48:24.812Z,7.80
2019-05-15T13:50:54.700Z,7.78
2019-05-15T13:53:24.363Z,8.05
2019-05-15T13:55:54.102Z,7.62
2019-05-15T13:58:23.804Z,8.30
2019-05-15T14:00:53.625Z,7.87
2019-05-15T14:03:23.392Z,7.90
2019-05-15T14:05:53.161Z,7.90
2019-05-15T14:08:22.923Z,7.73
2019-05-15T14:10:52.648Z,7.53
2019-05-15T14:13:22.305Z,7.00
2019-05-15T14:15:52.180Z,7.05
2019-05-15T14:18:21.907Z,8.03
2019-05-15T14:20:51.615Z,7.27
2019-05-15T14:23:21.257Z,7.83
2019-05-15T14:25:50.873Z,8.45
2019-05-15T14:28:20.587Z,8.40
2019-05-15T14:30:51.738Z,8.78
2019-05-15T14:33:21.561Z,8.58
2019-05-15T14:35:51.178Z,8.33
2019-05-15T14:38:23.727Z,8.55
2019-05-15T14:40:53.378Z,7.53
2019-05-15T14:43:23.033Z,6.70
2019-05-15T14:45:52.755Z,6.92
2019-05-15T14:48:22.548Z,8.47
2019-05-15T14:50:52.267Z,8.03
2019-05-15T14:53:21.856Z,7.53
2019-05-15T14:56:11.235Z,7.67
2019-05-15T14:58:41.615Z,7.72
2019-05-15T15:01:12.780Z,8.53
2019-05-15T15:03:42.967Z,7.60
2019-05-15T15:14:37.893Z,8.13
2019-05-15T15:17:07.870Z,6.72
2019-05-15T15:19:38.852Z,8.33
2019-05-15T15:22:08.844Z,8.15
2019-05-15T15:24:38.952Z,7.85
2019-05-15T15:27:08.858Z,7.90
2019-05-15T15:29:39.111Z,8.37
2019-05-15T15:32:08.798Z,7.87
2019-05-15T15:34:38.851Z,7.90
2019-05-15T15:37:08.602Z,7.53
2019-05-15T15:39:38.648Z,8.07
2019-05-15T15:42:08.710Z,8.15
2019-05-15T15:44:38.620Z,8.93
2019-05-15T15:47:08.770Z,7.20
2019-05-15T15:49:39.627Z,7.95
2019-05-15T15:52:09.401Z,7.95
2019-05-15T15:54:39.600Z,8.47
2019-05-15T15:57:09.998Z,7.83
2019-05-15T15:59:39.675Z,8.43
2019-05-15T16:02:11.006Z,8.33
2019-05-15T16:04:40.769Z,8.18
2019-05-15T16:07:10.504Z,8.80
2019-05-15T16:09:40.348Z,7.43
2019-05-15T16:14:43.550Z,7.20
2019-05-15T16:17:13.114Z,7.67
2019-05-15T16:19:42.861Z,9.05
2019-05-15T16:22:12.473Z,7.50
2019-05-15T16:24:42.144Z,7.20
2019-05-15T16:27:11.899Z,8.68
2019-05-15T16:29:41.574Z,6.97
2019-05-15T16:32:11.131Z,7.47
2019-05-15T16:34:40.801Z,8.80
2019-05-15T16:37:10.754Z,7.63
2019-05-15T16:39:40.497Z,7.22
2019-05-15T16:42:10.173Z,8.00
2019-05-15T16:44:39.884Z,8.23
2019-05-15T16:47:09.600Z,7.80
2019-05-15T16:49:39.364Z,8.87
2019-05-15T16:52:09.400Z,7.20
2019-05-15T16:54:39.053Z,8.25
2019-05-15T16:57:09.991Z,7.62
2019-05-15T16:59:40.061Z,8.65
2019-05-15T17:02:09.810Z,7.85
2019-05-15T17:04:39.620Z,8.83
2019-05-15T17:07:09.208Z,8.83
2019-05-15T17:09:39.983Z,8.35
2019-05-15T17:12:09.715Z,7.40
2019-05-15T17:14:39.441Z,9.38
2019-05-15T17:17:09.194Z,11.20
2019-05-15T17:19:38.933Z,9.30
2019-05-15T17:22:09.496Z,8.63
2019-05-15T17:24:39.302Z,9.03
2019-05-15T17:27:12.159Z,9.10
2019-05-15T17:29:40.414Z,10.15
2019-05-15T17:32:10.235Z,9.18
2019-05-15T17:34:39.860Z,9.03
2019-05-15T17:37:09.507Z,9.95
2019-05-15T17:39:41.730Z,9.43
2019-05-15T17:42:10.598Z,9.60
2019-05-15T17:44:40.162Z,10.08
2019-05-15T17:47:09.954Z,8.98
2019-05-15T17:49:39.785Z,9.53
2019-05-15T17:52:10.929Z,9.47
2019-05-15T17:54:40.663Z,8.88
2019-05-15T17:59:41.235Z,9.28
2019-05-15T18:02:10.963Z,9.73
2019-05-15T18:04:40.640Z,9.67
2019-05-15T18:07:10.426Z,9.23
2019-05-15T18:09:50.692Z,9.20
2019-05-15T18:12:12.584Z,12.40
2019-05-15T18:14:44.301Z,8.48
2019-05-15T18:17:15.149Z,9.75
2019-05-15T18:19:44.959Z,12.83
2019-05-15T18:22:14.691Z,8.93
2019-05-15T18:24:44.450Z,23.18
2019-05-15T18:27:14.177Z,9.40
2019-05-15T18:29:45.240Z,9.58
2019-05-15T18:32:15.489Z,8.53
2019-05-15T18:34:45.403Z,8.35
2019-05-15T18:37:15.117Z,8.90
2019-05-15T18:39:44.962Z,8.90
2019-05-15T18:42:14.667Z,11.20
2019-05-15T18:44:44.580Z,15.23
2019-05-15T18:47:14.263Z,6.92
2019-05-15T18:49:43.906Z,8.60
2019-05-15T18:52:13.695Z,9.00
2019-05-15T18:57:13.408Z,8.30
2019-05-15T19:02:12.677Z,8.43
2019-05-15T19:04:42.389Z,8.88
2019-05-15T19:07:12.153Z,8.45
2019-05-15T19:12:13.097Z,9.03
2019-05-15T19:14:42.835Z,9.60
2019-05-15T19:17:12.507Z,9.83
2019-05-15T19:19:42.265Z,10.75
2019-05-15T19:22:11.871Z,8.78
2019-05-15T19:24:41.512Z,9.30
2019-05-15T19:27:11.277Z,10.00
2019-05-15T19:29:41.092Z,9.53
2019-05-15T19:32:11.208Z,9.90
2019-05-15T19:34:41.110Z,11.63
2019-05-15T19:37:10.758Z,8.77
2019-05-15T19:39:40.530Z,10.55
2019-05-15T19:42:10.511Z,10.23
2019-05-15T19:44:40.380Z,8.08
2019-05-15T19:47:10.208Z,10.23
2019-05-15T19:49:40.011Z,11.00
2019-05-15T19:52:09.934Z,15.32
2019-05-15T19:54:39.620Z,9.07
2019-05-15T19:57:09.386Z,12.30
2019-05-15T19:59:39.363Z,11.10
2019-05-15T20:02:09.177Z,12.55
2019-05-15T20:04:39.096Z,11.30
2019-05-15T20:07:08.921Z,12.70
2019-05-15T20:09:38.713Z,15.78
2019-05-15T20:12:09.021Z,13.38
2019-05-15T20:14:39.100Z,14.07
2019-05-15T20:17:09.188Z,13.72
2019-05-15T20:19:39.052Z,13.55
2019-05-15T20:22:09.008Z,15.47
2019-05-15T20:24:38.728Z,16.80
2019-05-15T20:27:09.481Z,15.05
2019-05-15T20:29:39.497Z,18.65
2019-05-15T20:32:09.659Z,17.80
2019-05-15T20:34:39.540Z,21.33
2019-05-15T20:37:09.446Z,17.50
2019-05-15T20:39:39.160Z,19.47
2019-05-15T20:42:09.412Z,18.90
2019-05-15T20:44:39.289Z,18.45
2019-05-15T20:49:38.781Z,17.25
2019-05-15T20:52:08.655Z,19.15
2019-05-15T20:54:38.714Z,17.57
2019-05-15T20:57:08.959Z,19.07
2019-05-15T20:59:38.996Z,19.30
2019-05-15T21:02:09.877Z,18.23
2019-05-15T21:07:10.240Z,22.30
2019-05-15T21:09:39.944Z,20.95
2019-05-15T21:12:09.934Z,18.73
2019-05-15T21:14:40.207Z,20.85
2019-05-15T21:17:09.955Z,18.70
2019-05-15T21:19:39.952Z,19.67
2019-05-15T21:22:10.977Z,18.97
2019-05-15T21:24:40.939Z,19.10
2019-05-15T21:27:10.750Z,17.73
2019-05-15T21:29:40.681Z,18.77
2019-05-15T21:32:10.419Z,19.27
2019-05-15T21:34:44.092Z,20.23
2019-05-15T21:37:13.492Z,21.33
2019-05-15T21:39:43.345Z,18.50
2019-05-15T21:42:13.165Z,20.17
2019-05-15T21:44:42.982Z,19.73
2019-05-15T21:47:14.020Z,15.63
2019-05-15T21:49:44.079Z,14.00
2019-05-15T21:52:13.872Z,15.15
2019-05-15T21:54:43.602Z,16.77
2019-05-15T21:57:32.434Z,13.45
2019-05-15T21:59:44.957Z,13.53
2019-05-15T22:02:15.641Z,16.27
2019-05-15T22:04:52.796Z,14.98
2019-05-15T22:07:17.869Z,19.23
2019-05-15T22:09:48.737Z,15.70
2019-05-15T22:14:49.201Z,16.12
2019-05-15T22:17:19.404Z,15.90
2019-05-15T22:19:49.491Z,15.53
2019-05-15T22:22:19.547Z,16.25
2019-05-15T22:24:51.590Z,15.05
2019-05-15T22:27:21.418Z,12.55
2019-05-15T22:29:51.389Z,16.47
2019-05-15T22:32:21.463Z,14.68
2019-05-15T22:35:05.847Z,12.07
2019-05-15T22:37:22.923Z,11.12
2019-05-15T22:39:52.983Z,17.95
2019-05-15T22:42:22.890Z,17.55
2019-05-15T22:44:52.606Z,15.97
2019-05-15T22:47:22.406Z,17.12
2019-05-15T22:49:52.200Z,14.70
2019-05-15T22:52:22.028Z,16.48
2019-05-15T22:54:51.796Z,12.65
2019-05-15T22:57:21.603Z,14.07
2019-05-15T22:59:54.107Z,15.97
2019-05-15T23:02:25.208Z,15.05
2019-05-15T23:04:54.965Z,14.68
2019-05-15T23:07:25.029Z,13.22
2019-05-15T23:09:54.977Z,16.13
2019-05-15T23:12:24.764Z,11.00
2019-05-15T23:14:55.279Z,15.30
2019-05-15T23:17:27.611Z,13.88
2019-05-15T23:19:58.209Z,18.80
2019-05-15T23:22:28.213Z,14.60
2019-05-15T23:24:58.537Z,19.50
2019-05-15T23:27:28.722Z,21.97
2019-05-15T23:29:59.581Z,16.52
2019-05-15T23:32:29.345Z,17.83
2019-05-15T23:34:59.061Z,15.72
2019-05-15T23:37:28.771Z,18.90
2019-05-15T23:39:58.606Z,21.62
2019-05-15T23:42:29.185Z,21.77
2019-05-15T23:47:28.616Z,17.80
2019-05-15T23:49:58.338Z,18.52
2019-05-15T23:52:28.043Z,25.02
2019-05-15T23:54:58.944Z,19.95
2019-05-15T23:57:28.752Z,19.73
2019-05-15T23:59:58.582Z,24.70
